createdAt,value
2022-09-12T00:00:53.159Z,100.00
2022-09-12T00:03:19.900Z,100.00
2022-09-12T00:05:47.327Z,100.00
2022-09-12T00:08:14.283Z,100.00
2022-09-12T00:10:41.675Z,100.00
2022-09-12T00:13:08.671Z,100.00
2022-09-12T00:15:42.401Z,100.00
2022-09-12T00:18:09.832Z,100.00
2022-09-12T00:20:36.541Z,100.00
2022-09-12T00:23:03.291Z,100.00
2022-09-12T00:25:31.281Z,100.00
2022-09-12T00:27:58.116Z,100.00
2022-09-12T00:30:25.298Z,100.00
2022-09-12T00:32:54.713Z,100.00
2022-09-12T00:35:21.477Z,100.00
2022-09-12T00:37:48.178Z,100.00
2022-09-12T00:40:15.123Z,100.00
2022-09-12T00:42:41.847Z,100.00
2022-09-12T00:45:11.588Z,100.00
2022-09-12T00:47:38.402Z,100.00
2022-09-12T00:50:10.238Z,100.00
2022-09-12T00:52:43.988Z,100.00
2022-09-12T00:55:35.154Z,100.00
2022-09-12T00:58:03.593Z,100.00
2022-09-12T01:00:30.382Z,100.00
2022-09-12T01:03:01.878Z,100.00
2022-09-12T01:05:28.825Z,100.00
2022-09-12T01:07:56.561Z,100.00
2022-09-12T01:10:23.382Z,100.00
2022-09-12T01:12:50.120Z,100.00
2022-09-12T01:15:17.008Z,100.00
2022-09-12T01:18:21.326Z,100.00
2022-09-12T01:21:01.365Z,100.00
2022-09-12T01:23:58.422Z,100.00
2022-09-12T01:26:43.962Z,100.00
2022-09-12T01:29:32.473Z,99.97
2022-09-12T01:32:36.705Z,99.91
2022-09-12T01:35:16.749Z,99.85
2022-09-12T01:37:54.534Z,99.72
2022-09-12T01:40:30.581Z,99.60
2022-09-12T01:43:11.554Z,99.29
2022-09-12T01:45:45.813Z,99.08
2022-09-12T01:48:20.436Z,98.97
2022-09-12T01:50:52.606Z,98.56
2022-09-12T01:53:27.837Z,98.18
2022-09-12T01:56:04.104Z,97.94
2022-09-12T01:58:36.553Z,97.73
2022-09-12T02:01:07.944Z,97.63
2022-09-12T02:03:39.701Z,97.38
2022-09-12T02:06:31.654Z,97.28
2022-09-12T02:09:01.691Z,97.09
2022-09-12T02:11:28.421Z,97.06
2022-09-12T02:14:03.915Z,96.74
2022-09-12T02:16:34.402Z,96.71
2022-09-12T02:19:05.732Z,96.76
2022-09-12T02:21:33.095Z,96.54
2022-09-12T02:24:01.420Z,96.44
2022-09-12T02:26:53.047Z,96.54
2022-09-12T02:29:19.780Z,96.53
2022-09-12T02:31:59.960Z,96.51
2022-09-12T02:34:39.889Z,96.31
2022-09-12T02:37:17.365Z,96.10
2022-09-12T02:39:45.478Z,96.06
2022-09-12T02:42:12.675Z,95.89
2022-09-12T02:44:39.395Z,95.82
2022-09-12T02:47:10.659Z,95.84
2022-09-12T02:49:37.426Z,95.67
2022-09-12T02:52:04.315Z,95.62
2022-09-12T02:54:31.042Z,95.65
2022-09-12T02:56:57.747Z,95.54
2022-09-12T02:59:24.472Z,95.52
2022-09-12T03:02:28.229Z,95.74
2022-09-12T03:05:16.804Z,95.64
2022-09-12T03:07:52.576Z,95.63
2022-09-12T03:10:31.022Z,95.65
2022-09-12T03:13:26.849Z,95.67
2022-09-12T03:15:59.310Z,95.63
2022-09-12T03:18:32.327Z,95.67
2022-09-12T03:21:07.358Z,95.56
2022-09-12T03:23:54.217Z,95.54
2022-09-12T03:26:26.010Z,95.55
2022-09-12T03:28:53.160Z,95.53
2022-09-12T03:31:19.958Z,95.54
2022-09-12T03:33:46.647Z,95.53
2022-09-12T03:36:25.307Z,95.49
2022-09-12T03:38:52.092Z,95.31
2022-09-12T03:41:18.977Z,95.41
2022-09-12T03:43:45.838Z,95.29
2022-09-12T03:46:13.633Z,95.38
2022-09-12T03:48:41.153Z,95.17
2022-09-12T03:51:09.510Z,95.24
2022-09-12T03:53:36.297Z,94.91
2022-09-12T03:56:10.209Z,94.48
2022-09-12T03:58:36.981Z,94.41
2022-09-12T04:01:12.245Z,94.21
2022-09-12T04:03:42.984Z,94.15
2022-09-12T04:06:10.963Z,94.04
2022-09-12T04:08:37.864Z,93.83
2022-09-12T04:11:14.595Z,93.57
2022-09-12T04:13:42.519Z,93.25
2022-09-12T04:16:09.445Z,92.96
2022-09-12T04:18:36.213Z,92.56
2022-09-12T04:21:17.059Z,92.55
2022-09-12T04:23:43.988Z,92.21
2022-09-12T04:26:11.044Z,92.02
2022-09-12T04:28:38.283Z,91.76
2022-09-12T04:31:17.689Z,90.92
2022-09-12T04:33:45.075Z,90.65
2022-09-12T04:36:14.905Z,90.54
2022-09-12T04:38:41.657Z,90.32
2022-09-12T04:41:22.109Z,90.39
2022-09-12T04:43:52.256Z,90.27
2022-09-12T04:46:20.402Z,90.13
2022-09-12T04:48:47.850Z,90.09
2022-09-12T04:51:22.652Z,89.62
2022-09-12T04:53:50.840Z,89.15
2022-09-12T04:56:17.778Z,89.00
2022-09-12T04:58:44.788Z,88.85
2022-09-12T05:01:12.306Z,88.79
2022-09-12T05:03:39.697Z,88.75
2022-09-12T05:06:07.648Z,88.86
2022-09-12T05:08:35.559Z,89.01
2022-09-12T05:11:05.071Z,89.02
2022-09-12T05:13:32.006Z,89.12
2022-09-12T05:15:59.714Z,89.15
2022-09-12T05:18:26.724Z,89.01
2022-09-12T05:20:53.982Z,89.12
2022-09-12T05:23:21.234Z,89.36
2022-09-12T05:25:52.467Z,89.27
2022-09-12T05:28:19.702Z,89.24
2022-09-12T05:30:46.750Z,89.45
2022-09-12T05:33:14.212Z,89.31
2022-09-12T05:35:41.141Z,89.29
2022-09-12T05:38:07.998Z,89.14
2022-09-12T05:40:34.904Z,88.98
2022-09-12T05:43:01.629Z,88.48
2022-09-12T05:45:28.420Z,88.50
2022-09-12T05:47:55.197Z,88.53
2022-09-12T05:50:21.932Z,88.90
2022-09-12T05:52:48.703Z,88.81
2022-09-12T05:55:16.643Z,88.69
2022-09-12T05:57:46.439Z,88.72
2022-09-12T06:00:14.968Z,88.89
2022-09-12T06:02:42.582Z,88.78
2022-09-12T06:05:09.493Z,89.01
2022-09-12T06:07:36.266Z,88.55
2022-09-12T06:10:06.094Z,88.28
2022-09-12T06:12:32.856Z,88.17
2022-09-12T06:14:59.860Z,87.99
2022-09-12T06:17:26.593Z,87.88
2022-09-12T06:19:53.613Z,87.75
2022-09-12T06:22:21.056Z,87.89
2022-09-12T06:24:47.787Z,87.95
2022-09-12T06:27:14.533Z,87.86
2022-09-12T06:29:41.323Z,87.64
2022-09-12T06:32:08.083Z,87.51
2022-09-12T06:34:36.500Z,87.74
2022-09-12T06:37:04.036Z,87.73
2022-09-12T06:39:31.719Z,87.97
2022-09-12T06:41:58.397Z,87.95
2022-09-12T06:44:33.234Z,88.04
2022-09-12T06:46:59.959Z,88.23
2022-09-12T06:49:26.779Z,88.85
2022-09-12T06:51:53.483Z,89.23
2022-09-12T06:54:20.193Z,89.15
2022-09-12T06:56:46.998Z,89.23
2022-09-12T06:59:13.952Z,89.01
2022-09-12T07:01:41.748Z,88.85
2022-09-12T07:04:08.764Z,88.52
2022-09-12T07:06:40.659Z,88.25
2022-09-12T07:09:08.926Z,87.86
2022-09-12T07:11:36.730Z,87.83
2022-09-12T07:16:47.355Z,86.92
2022-09-12T07:19:14.158Z,85.99
2022-09-12T07:21:41.508Z,85.49
2022-09-12T07:24:09.750Z,85.23
2022-09-12T07:26:36.666Z,85.00
2022-09-12T07:29:32.236Z,84.92
2022-09-12T07:31:50.394Z,84.80
2022-09-12T07:34:17.639Z,84.70
2022-09-12T07:36:44.375Z,84.27
2022-09-12T07:39:11.171Z,83.85
2022-09-12T07:41:38.034Z,83.13
2022-09-12T07:44:06.720Z,82.29
2022-09-12T07:46:33.567Z,81.68
2022-09-12T07:49:00.813Z,81.69
2022-09-12T07:51:28.603Z,81.17
2022-09-12T07:53:56.547Z,80.73
2022-09-12T07:56:28.810Z,80.58
2022-09-12T07:58:56.994Z,80.00
2022-09-12T08:01:23.909Z,79.48
2022-09-12T08:03:55.342Z,79.43
2022-09-12T08:06:24.228Z,79.26
2022-09-12T08:08:51.770Z,79.24
2022-09-12T08:11:20.170Z,78.95
2022-09-12T08:13:49.648Z,78.55
2022-09-12T08:16:21.463Z,78.23
2022-09-12T08:18:48.672Z,77.75
2022-09-12T08:21:20.212Z,77.41
2022-09-12T08:23:47.300Z,77.03
2022-09-12T08:26:14.122Z,77.13
2022-09-12T08:28:45.661Z,77.20
2022-09-12T08:31:16.713Z,76.86
2022-09-12T08:33:43.502Z,76.93
2022-09-12T08:36:15.047Z,76.49
2022-09-12T08:38:43.011Z,76.39
2022-09-12T08:41:17.841Z,75.95
2022-09-12T08:44:25.285Z,75.77
2022-09-12T08:46:57.279Z,75.65
2022-09-12T08:49:28.997Z,75.17
2022-09-12T08:51:55.894Z,75.23
2022-09-12T08:54:27.499Z,74.88
2022-09-12T08:57:01.465Z,75.31
2022-09-12T08:59:36.116Z,75.43
2022-09-12T09:02:04.483Z,74.41
2022-09-12T09:04:51.581Z,73.47
2022-09-12T09:07:52.777Z,72.99
2022-09-12T09:10:31.607Z,73.20
2022-09-12T09:12:58.281Z,73.75
2022-09-12T09:15:37.710Z,73.50
2022-09-12T09:18:24.169Z,73.69
2022-09-12T09:20:53.961Z,73.23
2022-09-12T09:23:28.502Z,73.45
2022-09-12T09:26:10.612Z,73.19
2022-09-12T09:28:47.143Z,72.82
2022-09-12T09:31:22.427Z,72.66
2022-09-12T09:33:51.347Z,72.36
2022-09-12T09:36:22.970Z,72.53
2022-09-12T09:38:51.266Z,72.61
2022-09-12T09:41:42.159Z,72.63
2022-09-12T09:44:08.863Z,72.52
2022-09-12T09:46:35.663Z,72.90
2022-09-12T09:49:05.629Z,72.66
2022-09-12T09:51:39.644Z,72.40
2022-09-12T09:54:19.889Z,72.66
2022-09-12T09:56:48.741Z,72.34
2022-09-12T09:59:16.498Z,72.34
2022-09-12T10:01:46.424Z,72.22
2022-09-12T10:04:24.651Z,71.97
2022-09-12T10:06:59.687Z,72.12
2022-09-12T10:09:27.923Z,72.45
2022-09-12T10:11:55.658Z,72.55
2022-09-12T10:14:37.759Z,72.72
2022-09-12T10:17:22.860Z,72.83
2022-09-12T10:20:04.568Z,73.17
2022-09-12T10:22:36.620Z,73.55
2022-09-12T10:25:04.021Z,74.09
2022-09-12T10:27:33.809Z,74.21
2022-09-12T10:30:17.831Z,74.50
2022-09-12T10:32:50.880Z,74.51
2022-09-12T10:35:19.454Z,74.34
2022-09-12T10:37:58.947Z,74.55
2022-09-12T10:40:32.619Z,74.47
2022-09-12T10:42:59.730Z,74.68
2022-09-12T10:45:31.993Z,74.91
2022-09-12T10:48:07.293Z,74.93
2022-09-12T10:50:41.504Z,75.03
2022-09-12T10:53:14.397Z,75.00
2022-09-12T10:55:43.145Z,75.13
2022-09-12T10:58:53.727Z,75.18
2022-09-12T11:01:28.149Z,75.44
2022-09-12T11:04:13.667Z,75.60
2022-09-12T11:06:47.983Z,75.92
2022-09-12T11:09:17.422Z,76.25
2022-09-12T11:11:50.625Z,76.45
2022-09-12T11:14:31.715Z,76.40
2022-09-12T11:16:58.628Z,76.47
2022-09-12T11:19:38.439Z,76.84
2022-09-12T11:22:31.066Z,77.40
2022-09-12T11:25:12.391Z,77.79
2022-09-12T11:27:42.027Z,78.16
2022-09-12T11:30:11.160Z,78.09
2022-09-12T11:32:53.528Z,77.82
2022-09-12T11:35:27.733Z,77.50
2022-09-12T11:38:28.526Z,77.39
2022-09-12T11:40:59.605Z,77.41
2022-09-12T11:43:44.508Z,77.46
2022-09-12T11:46:19.036Z,77.69
2022-09-12T11:48:54.795Z,78.09
2022-09-12T11:51:55.450Z,78.32
2022-09-12T11:54:59.223Z,78.22
2022-09-12T11:57:28.987Z,77.90
2022-09-12T12:00:22.032Z,77.63
2022-09-12T12:03:06.576Z,77.62
2022-09-12T12:05:44.310Z,77.50
2022-09-12T12:08:11.427Z,77.68
2022-09-12T12:10:39.595Z,77.60
2022-09-12T12:13:27.914Z,77.81
2022-09-12T12:16:07.203Z,78.10
2022-09-12T12:18:36.610Z,77.88
2022-09-12T12:21:37.362Z,78.01
2022-09-12T12:24:09.856Z,77.66
2022-09-12T12:26:39.764Z,77.76
2022-09-12T12:29:18.528Z,77.56
2022-09-12T12:32:01.969Z,76.97
2022-09-12T12:34:40.012Z,76.64
2022-09-12T12:37:29.947Z,76.56
2022-09-12T12:40:05.663Z,76.78
2022-09-12T12:42:32.535Z,76.80
2022-09-12T12:45:04.123Z,76.88
2022-09-12T12:47:34.229Z,76.81
2022-09-12T12:50:16.108Z,76.71
2022-09-12T12:52:54.101Z,76.56
2022-09-12T12:55:26.466Z,76.60
2022-09-12T12:57:56.765Z,76.71
2022-09-12T13:00:28.181Z,76.72
2022-09-12T13:03:04.403Z,77.02
2022-09-12T13:05:47.625Z,77.21
2022-09-12T13:08:17.371Z,77.06
2022-09-12T13:11:17.230Z,77.15
2022-09-12T13:13:52.965Z,77.71
2022-09-12T13:16:53.348Z,77.83
2022-09-12T13:19:30.486Z,78.30
2022-09-12T13:22:00.673Z,78.83
2022-09-12T13:24:27.577Z,78.87
2022-09-12T13:26:54.397Z,78.87
2022-09-12T13:29:22.942Z,79.01
2022-09-12T13:31:52.708Z,78.89
2022-09-12T13:34:21.439Z,79.05
2022-09-12T13:37:12.660Z,79.04
2022-09-12T13:39:55.599Z,79.01
2022-09-12T13:42:48.696Z,79.10
2022-09-12T13:45:27.543Z,79.30
2022-09-12T13:48:04.643Z,78.86
2022-09-12T13:50:32.314Z,78.61
2022-09-12T13:53:00.718Z,78.49
2022-09-12T13:55:31.827Z,78.58
2022-09-12T13:58:03.666Z,78.56
2022-09-12T14:00:32.385Z,78.86
2022-09-12T14:03:18.234Z,79.10
2022-09-12T14:05:46.580Z,79.56
2022-09-12T14:08:14.465Z,79.91
2022-09-12T14:10:45.271Z,80.46
2022-09-12T14:13:24.255Z,80.68
2022-09-12T14:15:55.020Z,81.04
2022-09-12T14:18:27.051Z,81.28
2022-09-12T14:21:00.610Z,81.60
2022-09-12T14:23:32.163Z,81.84
2022-09-12T14:26:02.600Z,82.02
2022-09-12T14:28:30.215Z,82.23
2022-09-12T14:31:19.066Z,82.15
2022-09-12T14:33:50.829Z,82.52
2022-09-12T14:36:27.322Z,82.88
2022-09-12T14:39:05.837Z,82.81
2022-09-12T14:41:34.644Z,82.78
2022-09-12T14:44:03.712Z,83.27
2022-09-12T14:46:31.350Z,83.39
2022-09-12T14:49:23.996Z,83.47
2022-09-12T14:51:51.433Z,83.57
2022-09-12T14:54:27.495Z,83.48
2022-09-12T14:56:56.024Z,83.54
2022-09-12T14:59:34.891Z,83.82
2022-09-12T15:02:13.794Z,83.46
2022-09-12T15:04:41.257Z,83.63
2022-09-12T15:07:38.407Z,83.77
2022-09-12T15:10:05.463Z,84.24
2022-09-12T15:12:32.288Z,84.56
2022-09-12T15:15:25.272Z,84.91
2022-09-12T15:17:52.000Z,85.03
2022-09-12T15:20:18.756Z,85.16
2022-09-12T15:22:45.485Z,85.10
2022-09-12T15:25:13.005Z,85.15
2022-09-12T15:27:41.005Z,85.24
2022-09-12T15:30:12.155Z,85.53
2022-09-12T15:32:39.540Z,85.64
2022-09-12T15:35:25.602Z,85.66
2022-09-12T15:37:52.430Z,85.65
2022-09-12T15:40:19.367Z,85.70
2022-09-12T15:42:46.343Z,85.83
2022-09-12T15:45:20.229Z,86.21
2022-09-12T15:47:46.976Z,86.33
2022-09-12T15:50:13.731Z,86.50
2022-09-12T15:52:41.425Z,86.78
2022-09-12T15:55:19.380Z,86.89
2022-09-12T15:57:46.352Z,87.10
2022-09-12T16:00:14.211Z,87.24
2022-09-12T16:02:41.048Z,87.29
2022-09-12T16:05:13.075Z,87.36
2022-09-12T16:07:39.764Z,87.30
2022-09-12T16:10:06.885Z,87.49
2022-09-12T16:12:33.585Z,87.42
2022-09-12T16:15:00.297Z,87.52
2022-09-12T16:17:26.977Z,87.63
2022-09-12T16:19:53.810Z,87.62
2022-09-12T16:22:20.499Z,87.61
2022-09-12T16:24:47.186Z,87.55
2022-09-12T16:27:14.073Z,87.60
2022-09-12T16:29:41.078Z,88.02
2022-09-12T16:32:07.792Z,88.19
2022-09-12T16:34:34.611Z,88.15
2022-09-12T16:37:02.015Z,88.51
2022-09-12T16:39:28.748Z,88.76
2022-09-12T16:41:55.545Z,89.01
2022-09-12T16:44:22.281Z,89.15
2022-09-12T16:46:50.205Z,89.46
2022-09-12T16:49:16.964Z,89.36
2022-09-12T16:51:47.442Z,89.48
2022-09-12T16:54:15.689Z,89.82
2022-09-12T16:56:42.460Z,89.85
2022-09-12T16:59:12.209Z,90.14
2022-09-12T17:01:38.991Z,90.42
2022-09-12T17:04:06.780Z,90.60
2022-09-12T17:06:34.038Z,90.40
2022-09-12T17:09:01.048Z,90.64
2022-09-12T17:11:30.993Z,90.93
2022-09-12T17:14:06.647Z,91.16
2022-09-12T17:16:35.277Z,91.17
2022-09-12T17:19:02.303Z,91.22
2022-09-12T17:21:29.238Z,91.24
2022-09-12T17:23:56.172Z,91.89
2022-09-12T17:26:22.988Z,91.51
2022-09-12T17:28:49.896Z,91.65
2022-09-12T17:31:17.270Z,91.89
2022-09-12T17:33:44.228Z,91.92
2022-09-12T17:36:16.436Z,92.26
2022-09-12T17:38:44.525Z,92.30
2022-09-12T17:41:15.320Z,92.49
2022-09-12T17:43:42.346Z,92.58
2022-09-12T17:46:09.551Z,92.69
2022-09-12T17:48:36.413Z,92.85
2022-09-12T17:51:10.029Z,93.21
2022-09-12T17:53:36.911Z,93.14
2022-09-12T17:56:04.694Z,93.51
2022-09-12T17:58:32.381Z,93.63
2022-09-12T18:01:33.759Z,93.85
2022-09-12T18:04:01.198Z,94.14
2022-09-12T18:06:28.877Z,94.29
2022-09-12T18:08:56.139Z,94.36
2022-09-12T18:11:23.002Z,94.54
2022-09-12T18:13:50.690Z,94.61
2022-09-12T18:16:18.232Z,94.94
2022-09-12T18:18:45.209Z,95.20
2022-09-12T18:21:12.264Z,95.08
2022-09-12T18:23:39.221Z,95.23
2022-09-12T18:26:07.520Z,95.15
2022-09-12T18:28:39.002Z,95.04
2022-09-12T18:31:10.024Z,95.24
2022-09-12T18:33:37.872Z,95.48
2022-09-12T18:36:05.848Z,95.50
2022-09-12T18:38:32.859Z,95.44
2022-09-12T18:41:06.992Z,95.35
2022-09-12T18:43:34.024Z,95.39
2022-09-12T18:46:04.795Z,95.36
2022-09-12T18:48:32.617Z,95.43
2022-09-12T18:51:12.558Z,95.78
2022-09-12T18:53:39.509Z,95.71
2022-09-12T18:56:12.236Z,95.83
2022-09-12T18:58:43.529Z,95.67
2022-09-12T19:01:15.369Z,95.68
2022-09-12T19:03:42.449Z,95.64
2022-09-12T19:06:19.871Z,95.83
2022-09-12T19:08:47.259Z,95.73
2022-09-12T19:11:14.223Z,95.36
2022-09-12T19:13:42.326Z,95.36
2022-09-12T19:16:11.777Z,95.46
2022-09-12T19:18:38.973Z,95.73
2022-09-12T19:21:06.633Z,95.53
2022-09-12T19:23:34.402Z,95.57
2022-09-12T19:26:08.633Z,95.63
2022-09-12T19:28:35.606Z,95.71
2022-09-12T19:33:50.612Z,95.30
2022-09-12T19:36:43.387Z,95.35
2022-09-12T19:39:06.230Z,95.77
2022-09-12T19:41:33.061Z,95.93
2022-09-12T19:44:00.015Z,96.11
2022-09-12T19:46:27.211Z,96.25
2022-09-12T19:48:54.104Z,96.01
2022-09-12T19:51:21.723Z,96.12
2022-09-12T19:53:50.270Z,96.15
2022-09-12T19:56:17.086Z,96.12
2022-09-12T19:58:45.486Z,96.14
2022-09-12T20:01:13.361Z,96.34
2022-09-12T20:03:40.319Z,96.37
2022-09-12T20:06:09.389Z,96.47
2022-09-12T20:08:37.341Z,96.31
2022-09-12T20:11:04.402Z,96.32
2022-09-12T20:13:31.209Z,96.42
2022-09-12T20:16:20.408Z,96.45
2022-09-12T20:18:49.501Z,96.23
2022-09-12T20:21:17.845Z,96.37
2022-09-12T20:23:45.049Z,96.24
2022-09-12T20:26:12.082Z,96.15
2022-09-12T20:28:39.050Z,95.94
2022-09-12T20:31:07.599Z,95.72
2022-09-12T20:33:34.386Z,95.77
2022-09-12T20:36:09.411Z,95.97
2022-09-12T20:38:36.424Z,95.47
2022-09-12T20:41:04.672Z,95.30
2022-09-12T20:43:31.480Z,95.20
2022-09-12T20:45:58.282Z,95.28
2022-09-12T20:48:25.279Z,95.25
2022-09-12T20:50:51.983Z,95.33
2022-09-12T20:53:18.785Z,95.19
2022-09-12T20:55:52.094Z,95.06
2022-09-12T20:58:19.650Z,95.16
2022-09-12T21:00:46.892Z,95.30
2022-09-12T21:03:14.348Z,95.32
2022-09-12T21:05:45.855Z,95.18
2022-09-12T21:08:12.805Z,95.42
2022-09-12T21:10:41.144Z,95.18
2022-09-12T21:13:11.610Z,95.22
2022-09-12T21:15:38.887Z,95.47
2022-09-12T21:18:05.751Z,95.36
2022-09-12T21:20:32.650Z,95.44
2022-09-12T21:22:59.618Z,95.08
2022-09-12T21:25:26.370Z,95.07
2022-09-12T21:27:53.048Z,95.15
2022-09-12T21:30:19.810Z,95.05
2022-09-12T21:32:46.483Z,95.29
2022-09-12T21:35:13.637Z,95.25
2022-09-12T21:37:40.370Z,95.52
2022-09-12T21:40:07.127Z,95.61
2022-09-12T21:42:33.961Z,95.61
2022-09-12T21:45:00.607Z,95.80
2022-09-12T21:47:27.376Z,96.08
2022-09-12T21:49:55.295Z,96.04
2022-09-12T21:52:22.104Z,96.47
2022-09-12T21:54:48.778Z,96.67
2022-09-12T21:57:15.709Z,96.80
2022-09-12T21:59:42.573Z,97.29
2022-09-12T22:02:10.821Z,97.44
2022-09-12T22:04:37.590Z,97.72
2022-09-12T22:07:05.434Z,97.72
2022-09-12T22:09:32.900Z,97.88
2022-09-12T22:11:59.988Z,97.91
2022-09-12T22:14:26.724Z,97.84
2022-09-12T22:16:53.388Z,98.01
2022-09-12T22:19:20.326Z,97.87
2022-09-12T22:22:05.643Z,97.82
2022-09-12T22:24:32.425Z,97.80
2022-09-12T22:27:02.040Z,97.85
2022-09-12T22:29:28.752Z,97.63
2022-09-12T22:31:55.571Z,97.53
2022-09-12T22:34:22.334Z,97.59
2022-09-12T22:36:49.011Z,97.83
2022-09-12T22:39:15.848Z,97.81
2022-09-12T22:41:42.573Z,97.63
2022-09-12T22:44:10.133Z,97.59
2022-09-12T22:46:37.977Z,97.66
2022-09-12T22:49:07.912Z,97.73
2022-09-12T22:51:34.699Z,97.96
2022-09-12T22:54:01.709Z,97.91
2022-09-12T22:56:28.522Z,97.98
2022-09-12T22:58:55.297Z,98.09
2022-09-12T23:01:22.083Z,98.21
2022-09-12T23:03:48.974Z,98.18
2022-09-12T23:06:15.834Z,98.02
2022-09-12T23:08:42.519Z,98.42
2022-09-12T23:11:13.429Z,98.22
2022-09-12T23:13:42.415Z,98.55
2022-09-12T23:16:12.892Z,98.60
2022-09-12T23:18:39.707Z,98.72
2022-09-12T23:21:07.462Z,98.75
2022-09-12T23:23:34.282Z,98.94
2022-09-12T23:26:05.301Z,99.10
2022-09-12T23:28:32.069Z,99.13
2022-09-12T23:31:00.278Z,99.55
2022-09-12T23:33:28.474Z,99.41
2022-09-12T23:36:08.909Z,99.52
2022-09-12T23:38:35.694Z,99.65
2022-09-12T23:41:03.347Z,99.64
2022-09-12T23:43:30.143Z,99.65
2022-09-12T23:45:57.678Z,99.63
2022-09-12T23:48:24.576Z,99.54
2022-09-12T23:50:51.733Z,99.70
2022-09-12T23:53:18.839Z,99.71
2022-09-12T23:55:45.546Z,99.87
2022-09-12T23:58:12.213Z,99.74
